sensor_id;sensor_type;location;lat;lon;timestamp;temperature;humidity
20057;DHT22;10189;49.546;7.906;2023-04-07T00:01:56;5.20;99.90
20057;DHT22;10189;49.546;7.906;2023-04-07T00:04:21;5.20;99.90
20057;DHT22;10189;49.546;7.906;2023-04-07T00:06:47;5.10;99.90
20057;DHT22;10189;49.546;7.906;2023-04-07T00:09:13;5.10;99.90
20057;DHT22;10189;49.546;7.906;2023-04-07T00:11:39;5.00;99.90
20057;DHT22;10189;49.546;7.906;2023-04-07T00:14:05;5.00;99.90
20057;DHT22;10189;49.546;7.906;2023-04-07T00:16:30;5.00;99.90
20057;DHT22;10189;49.546;7.906;2023-04-07T00:18:56;4.90;99.90
20057;DHT22;10189;49.546;7.906;2023-04-07T00:21:22;4.90;99.90
20057;DHT22;10189;49.546;7.906;2023-04-07T00:23:48;4.90;99.90
20057;DHT22;10189;49.546;7.906;2023-04-07T00:26:14;4.90;99.90
20057;DHT22;10189;49.546;7.906;2023-04-07T00:28:42;5.00;99.90
20057;DHT22;10189;49.546;7.906;2023-04-07T00:31:08;5.00;99.90
20057;DHT22;10189;49.546;7.906;2023-04-07T00:33:34;5.00;99.90
20057;DHT22;10189;49.546;7.906;2023-04-07T00:36:00;4.90;99.90
20057;DHT22;10189;49.546;7.906;2023-04-07T00:38:26;4.80;99.90
20057;DHT22;10189;49.546;7.906;2023-04-07T00:41:01;4.90;99.90
20057;DHT22;10189;49.546;7.906;2023-04-07T00:43:27;4.90;99.90
20057;DHT22;10189;49.546;7.906;2023-04-07T00:45:53;4.90;99.90
20057;DHT22;10189;49.546;7.906;2023-04-07T00:48:19;4.80;99.90
20057;DHT22;10189;49.546;7.906;2023-04-07T00:50:46;4.80;99.90
20057;DHT22;10189;49.546;7.906;2023-04-07T00:53:12;4.80;99.90
20057;DHT22;10189;49.546;7.906;2023-04-07T00:55:38;4.80;99.90
20057;DHT22;10189;49.546;7.906;2023-04-07T00:58:04;4.80;99.90
20057;DHT22;10189;49.546;7.906;2023-04-07T01:01:14;4.80;99.90
20057;DHT22;10189;49.546;7.906;2023-04-07T01:03:48;4.80;99.90
20057;DHT22;10189;49.546;7.906;2023-04-07T01:06:23;4.70;99.90
20057;DHT22;10189;49.546;7.906;2023-04-07T01:09:15;4.70;99.90
20057;DHT22;10189;49.546;7.906;2023-04-07T01:12:04;4.60;99.90
20057;DHT22;10189;49.546;7.906;2023-04-07T01:14:40;4.60;99.90
20057;DHT22;10189;49.546;7.906;2023-04-07T01:17:45;4.50;99.90
20057;DHT22;10189;49.546;7.906;2023-04-07T01:20:20;4.40;99.90
20057;DHT22;10189;49.546;7.906;2023-04-07T01:22:56;4.20;99.90
20057;DHT22;10189;49.546;7.906;2023-04-07T01:31:39;4.00;99.90
20057;DHT22;10189;49.546;7.906;2023-04-07T01:34:09;3.90;99.90
20057;DHT22;10189;49.546;7.906;2023-04-07T01:36:36;3.80;99.90
20057;DHT22;10189;49.546;7.906;2023-04-07T01:39:03;3.70;99.90
20057;DHT22;10189;49.546;7.906;2023-04-07T01:41:30;3.60;99.90
20057;DHT22;10189;49.546;7.906;2023-04-07T01:43:58;3.50;99.90
20057;DHT22;10189;49.546;7.906;2023-04-07T01:46:25;3.40;99.90
20057;DHT22;10189;49.546;7.906;2023-04-07T01:48:52;3.30;99.90
20057;DHT22;10189;49.546;7.906;2023-04-07T01:51:20;3.30;99.90
20057;DHT22;10189;49.546;7.906;2023-04-07T01:53:48;3.30;99.90
20057;DHT22;10189;49.546;7.906;2023-04-07T01:56:15;3.30;99.90
20057;DHT22;10189;49.546;7.906;2023-04-07T01:58:43;3.30;99.90
20057;DHT22;10189;49.546;7.906;2023-04-07T02:01:14;3.30;99.90
20057;DHT22;10189;49.546;7.906;2023-04-07T02:03:55;3.40;99.90
20057;DHT22;10189;49.546;7.906;2023-04-07T02:06:42;3.50;99.90
20057;DHT22;10189;49.546;7.906;2023-04-07T02:09:15;3.50;99.90
20057;DHT22;10189;49.546;7.906;2023-04-07T02:11:45;3.60;99.90
20057;DHT22;10189;49.546;7.906;2023-04-07T02:14:11;3.60;99.90
20057;DHT22;10189;49.546;7.906;2023-04-07T02:16:54;3.70;99.90
20057;DHT22;10189;49.546;7.906;2023-04-07T02:19:21;3.80;99.90
20057;DHT22;10189;49.546;7.906;2023-04-07T02:21:47;3.80;99.90
20057;DHT22;10189;49.546;7.906;2023-04-07T02:24:19;3.90;99.90
20057;DHT22;10189;49.546;7.906;2023-04-07T02:26:47;4.00;99.90
20057;DHT22;10189;49.546;7.906;2023-04-07T02:29:13;4.00;99.90
20057;DHT22;10189;49.546;7.906;2023-04-07T02:31:39;4.00;99.90
20057;DHT22;10189;49.546;7.906;2023-04-07T02:34:05;4.00;99.90
20057;DHT22;10189;49.546;7.906;2023-04-07T02:36:31;4.00;99.90
20057;DHT22;10189;49.546;7.906;2023-04-07T02:38:57;4.10;99.90
20057;DHT22;10189;49.546;7.906;2023-04-07T02:41:23;4.10;99.90
20057;DHT22;10189;49.546;7.906;2023-04-07T02:43:49;4.00;99.90
20057;DHT22;10189;49.546;7.906;2023-04-07T02:46:15;4.00;99.90
20057;DHT22;10189;49.546;7.906;2023-04-07T02:48:41;4.00;99.90
20057;DHT22;10189;49.546;7.906;2023-04-07T02:51:08;4.00;99.90
20057;DHT22;10189;49.546;7.906;2023-04-07T02:53:34;3.90;99.90
20057;DHT22;10189;49.546;7.906;2023-04-07T02:56:01;4.00;99.90
20057;DHT22;10189;49.546;7.906;2023-04-07T02:58:27;3.90;99.90
20057;DHT22;10189;49.546;7.906;2023-04-07T03:00:53;3.90;99.90
20057;DHT22;10189;49.546;7.906;2023-04-07T03:03:21;3.80;99.90
20057;DHT22;10189;49.546;7.906;2023-04-07T03:06:08;3.80;99.90
20057;DHT22;10189;49.546;7.906;2023-04-07T03:08:42;3.70;99.90
20057;DHT22;10189;49.546;7.906;2023-04-07T03:11:08;3.70;99.90
20057;DHT22;10189;49.546;7.906;2023-04-07T03:13:34;3.60;99.90
20057;DHT22;10189;49.546;7.906;2023-04-07T03:16:00;3.50;99.90
20057;DHT22;10189;49.546;7.906;2023-04-07T03:18:31;3.50;99.90
20057;DHT22;10189;49.546;7.906;2023-04-07T03:20:59;3.50;99.90
20057;DHT22;10189;49.546;7.906;2023-04-07T03:23:26;3.50;99.90
20057;DHT22;10189;49.546;7.906;2023-04-07T03:25:55;3.40;99.90
20057;DHT22;10189;49.546;7.906;2023-04-07T03:28:23;3.40;99.90
20057;DHT22;10189;49.546;7.906;2023-04-07T03:30:48;3.40;99.90
20057;DHT22;10189;49.546;7.906;2023-04-07T03:33:15;3.40;99.90
20057;DHT22;10189;49.546;7.906;2023-04-07T03:35:41;3.30;99.90
20057;DHT22;10189;49.546;7.906;2023-04-07T03:38:07;3.20;99.90
20057;DHT22;10189;49.546;7.906;2023-04-07T03:40:34;3.10;99.90
20057;DHT22;10189;49.546;7.906;2023-04-07T03:43:00;3.10;99.90
20057;DHT22;10189;49.546;7.906;2023-04-07T03:45:28;3.00;99.90
20057;DHT22;10189;49.546;7.906;2023-04-07T03:47:54;2.90;99.90
20057;DHT22;10189;49.546;7.906;2023-04-07T03:50:21;2.90;99.90
20057;DHT22;10189;49.546;7.906;2023-04-07T03:53:04;2.80;99.90
20057;DHT22;10189;49.546;7.906;2023-04-07T03:55:31;2.70;99.90
20057;DHT22;10189;49.546;7.906;2023-04-07T03:58:05;2.70;99.90
20057;DHT22;10189;49.546;7.906;2023-04-07T04:00:34;2.70;99.90
20057;DHT22;10189;49.546;7.906;2023-04-07T04:03:07;2.60;99.90
20057;DHT22;10189;49.546;7.906;2023-04-07T04:05:36;2.50;99.90
20057;DHT22;10189;49.546;7.906;2023-04-07T04:08:02;2.40;99.90
20057;DHT22;10189;49.546;7.906;2023-04-07T04:10:29;2.30;99.90
20057;DHT22;10189;49.546;7.906;2023-04-07T04:12:56;2.30;99.90
20057;DHT22;10189;49.546;7.906;2023-04-07T04:15:25;2.30;99.90
20057;DHT22;10189;49.546;7.906;2023-04-07T04:17:54;2.30;99.90
20057;DHT22;10189;49.546;7.906;2023-04-07T04:20:22;2.30;99.90
20057;DHT22;10189;49.546;7.906;2023-04-07T04:22:49;2.30;99.90
20057;DHT22;10189;49.546;7.906;2023-04-07T04:25:16;2.40;99.90
20057;DHT22;10189;49.546;7.906;2023-04-07T04:27:46;2.30;99.90
20057;DHT22;10189;49.546;7.906;2023-04-07T04:30:19;2.40;99.90
20057;DHT22;10189;49.546;7.906;2023-04-07T04:32:55;2.30;99.90
20057;DHT22;10189;49.546;7.906;2023-04-07T04:35:29;2.30;99.90
20057;DHT22;10189;49.546;7.906;2023-04-07T04:38:09;2.30;99.90
20057;DHT22;10189;49.546;7.906;2023-04-07T04:40:38;2.30;99.90
20057;DHT22;10189;49.546;7.906;2023-04-07T04:43:04;2.40;99.90
20057;DHT22;10189;49.546;7.906;2023-04-07T04:45:34;2.40;99.90
20057;DHT22;10189;49.546;7.906;2023-04-07T04:48:00;2.50;99.90
20057;DHT22;10189;49.546;7.906;2023-04-07T04:50:26;2.70;99.90
20057;DHT22;10189;49.546;7.906;2023-04-07T04:52:53;2.80;99.90
20057;DHT22;10189;49.546;7.906;2023-04-07T04:55:21;2.80;99.90
20057;DHT22;10189;49.546;7.906;2023-04-07T04:57:47;2.90;99.90
20057;DHT22;10189;49.546;7.906;2023-04-07T05:00:19;2.90;99.90
20057;DHT22;10189;49.546;7.906;2023-04-07T05:02:48;3.00;99.90
20057;DHT22;10189;49.546;7.906;2023-04-07T05:05:14;3.10;99.90
20057;DHT22;10189;49.546;7.906;2023-04-07T05:07:41;3.30;99.90
20057;DHT22;10189;49.546;7.906;2023-04-07T05:10:10;3.30;99.90
20057;DHT22;10189;49.546;7.906;2023-04-07T05:12:43;3.40;99.90
20057;DHT22;10189;49.546;7.906;2023-04-07T05:15:10;3.50;99.90
20057;DHT22;10189;49.546;7.906;2023-04-07T05:17:37;3.60;99.90
20057;DHT22;10189;49.546;7.906;2023-04-07T05:20:04;3.70;99.90
20057;DHT22;10189;49.546;7.906;2023-04-07T05:22:35;3.70;99.90
20057;DHT22;10189;49.546;7.906;2023-04-07T05:25:02;3.70;99.90
20057;DHT22;10189;49.546;7.906;2023-04-07T05:27:28;3.80;99.90
20057;DHT22;10189;49.546;7.906;2023-04-07T05:30:00;3.90;99.90
20057;DHT22;10189;49.546;7.906;2023-04-07T05:32:30;4.00;99.90
20057;DHT22;10189;49.546;7.906;2023-04-07T05:35:01;4.20;99.90
20057;DHT22;10189;49.546;7.906;2023-04-07T05:37:30;4.20;99.90
20057;DHT22;10189;49.546;7.906;2023-04-07T05:40:00;4.30;99.90
20057;DHT22;10189;49.546;7.906;2023-04-07T05:42:26;4.40;99.90
20057;DHT22;10189;49.546;7.906;2023-04-07T05:44:55;4.50;99.90
20057;DHT22;10189;49.546;7.906;2023-04-07T05:47:23;4.50;99.90
20057;DHT22;10189;49.546;7.906;2023-04-07T05:49:49;4.70;99.90
20057;DHT22;10189;49.546;7.906;2023-04-07T05:52:15;4.80;99.90
20057;DHT22;10189;49.546;7.906;2023-04-07T05:54:47;4.90;99.90
20057;DHT22;10189;49.546;7.906;2023-04-07T05:57:14;5.00;99.90
20057;DHT22;10189;49.546;7.906;2023-04-07T05:59:43;5.10;99.90
20057;DHT22;10189;49.546;7.906;2023-04-07T06:02:10;5.20;99.90
20057;DHT22;10189;49.546;7.906;2023-04-07T06:04:38;5.20;99.90
20057;DHT22;10189;49.546;7.906;2023-04-07T06:07:06;5.30;99.90
20057;DHT22;10189;49.546;7.906;2023-04-07T06:09:32;5.30;99.90
20057;DHT22;10189;49.546;7.906;2023-04-07T06:11:58;5.40;99.90
20057;DHT22;10189;49.546;7.906;2023-04-07T06:14:26;5.40;99.90
20057;DHT22;10189;49.546;7.906;2023-04-07T06:16:52;5.40;99.90
20057;DHT22;10189;49.546;7.906;2023-04-07T06:19:18;5.50;99.90
20057;DHT22;10189;49.546;7.906;2023-04-07T06:21:44;5.50;99.90
20057;DHT22;10189;49.546;7.906;2023-04-07T06:24:09;5.60;99.90
20057;DHT22;10189;49.546;7.906;2023-04-07T06:26:35;5.60;99.90
20057;DHT22;10189;49.546;7.906;2023-04-07T06:29:01;5.70;99.90
20057;DHT22;10189;49.546;7.906;2023-04-07T06:31:27;5.70;99.90
20057;DHT22;10189;49.546;7.906;2023-04-07T06:33:53;5.70;99.90
20057;DHT22;10189;49.546;7.906;2023-04-07T06:36:19;5.80;99.90
20057;DHT22;10189;49.546;7.906;2023-04-07T06:38:46;5.90;99.90
20057;DHT22;10189;49.546;7.906;2023-04-07T06:41:12;5.90;99.90
20057;DHT22;10189;49.546;7.906;2023-04-07T06:43:46;5.80;99.90
20057;DHT22;10189;49.546;7.906;2023-04-07T06:46:12;5.80;99.90
20057;DHT22;10189;49.546;7.906;2023-04-07T06:48:38;5.80;99.90
20057;DHT22;10189;49.546;7.906;2023-04-07T06:51:04;5.90;99.90
20057;DHT22;10189;49.546;7.906;2023-04-07T06:53:30;6.00;99.90
20057;DHT22;10189;49.546;7.906;2023-04-07T06:56:09;6.00;99.90
20057;DHT22;10189;49.546;7.906;2023-04-07T06:58:36;6.20;99.90
20057;DHT22;10189;49.546;7.906;2023-04-07T07:01:03;6.30;99.90
20057;DHT22;10189;49.546;7.906;2023-04-07T07:03:30;6.40;99.90
20057;DHT22;10189;49.546;7.906;2023-04-07T07:05:57;6.60;99.90
20057;DHT22;10189;49.546;7.906;2023-04-07T07:08:24;6.80;99.90
20057;DHT22;10189;49.546;7.906;2023-04-07T07:10:51;7.10;99.90
20057;DHT22;10189;49.546;7.906;2023-04-07T07:13:20;7.30;99.30
20057;DHT22;10189;49.546;7.906;2023-04-07T07:15:51;7.40;98.40
20057;DHT22;10189;49.546;7.906;2023-04-07T07:18:17;7.60;96.70
20057;DHT22;10189;49.546;7.906;2023-04-07T07:20:44;7.70;95.10
20057;DHT22;10189;49.546;7.906;2023-04-07T07:23:10;8.10;94.70
20057;DHT22;10189;49.546;7.906;2023-04-07T07:25:36;8.30;93.50
20057;DHT22;10189;49.546;7.906;2023-04-07T07:28:02;8.60;94.00
20057;DHT22;10189;49.546;7.906;2023-04-07T07:30:28;8.80;92.80
20057;DHT22;10189;49.546;7.906;2023-04-07T07:32:54;9.00;88.50
20057;DHT22;10189;49.546;7.906;2023-04-07T07:35:21;9.10;88.80
20057;DHT22;10189;49.546;7.906;2023-04-07T07:37:47;9.20;87.30
20057;DHT22;10189;49.546;7.906;2023-04-07T07:40:13;9.10;88.00
20057;DHT22;10189;49.546;7.906;2023-04-07T07:42:40;9.00;88.90
20057;DHT22;10189;49.546;7.906;2023-04-07T07:45:06;8.80;87.20
20057;DHT22;10189;49.546;7.906;2023-04-07T07:47:33;8.60;88.30
20057;DHT22;10189;49.546;7.906;2023-04-07T07:50:02;8.50;89.30
20057;DHT22;10189;49.546;7.906;2023-04-07T07:52:29;8.50;89.80
20057;DHT22;10189;49.546;7.906;2023-04-07T07:54:56;8.50;90.00
20057;DHT22;10189;49.546;7.906;2023-04-07T07:57:21;8.70;90.30
20057;DHT22;10189;49.546;7.906;2023-04-07T07:59:47;8.90;90.50
20057;DHT22;10189;49.546;7.906;2023-04-07T08:02:13;9.20;91.40
20057;DHT22;10189;49.546;7.906;2023-04-07T08:04:39;9.40;91.00
20057;DHT22;10189;49.546;7.906;2023-04-07T08:07:05;9.50;85.60
20057;DHT22;10189;49.546;7.906;2023-04-07T08:09:31;9.40;84.50
20057;DHT22;10189;49.546;7.906;2023-04-07T08:11:57;9.30;84.50
20057;DHT22;10189;49.546;7.906;2023-04-07T08:14:23;9.20;86.10
20057;DHT22;10189;49.546;7.906;2023-04-07T08:16:49;9.20;86.90
20057;DHT22;10189;49.546;7.906;2023-04-07T08:19:15;9.40;85.90
20057;DHT22;10189;49.546;7.906;2023-04-07T08:21:41;9.30;85.50
20057;DHT22;10189;49.546;7.906;2023-04-07T08:24:08;9.80;86.50
20057;DHT22;10189;49.546;7.906;2023-04-07T08:26:34;10.10;81.70
20057;DHT22;10189;49.546;7.906;2023-04-07T08:29:00;9.90;82.20
20057;DHT22;10189;49.546;7.906;2023-04-07T08:31:26;10.20;87.20
20057;DHT22;10189;49.546;7.906;2023-04-07T08:33:52;10.50;83.50
20057;DHT22;10189;49.546;7.906;2023-04-07T08:36:19;10.70;81.80
20057;DHT22;10189;49.546;7.906;2023-04-07T08:38:45;11.00;83.00
20057;DHT22;10189;49.546;7.906;2023-04-07T08:41:12;11.00;78.80
20057;DHT22;10189;49.546;7.906;2023-04-07T08:43:47;10.70;80.50
20057;DHT22;10189;49.546;7.906;2023-04-07T08:46:14;10.50;80.00
20057;DHT22;10189;49.546;7.906;2023-04-07T08:48:46;10.00;81.10
20057;DHT22;10189;49.546;7.906;2023-04-07T08:51:26;9.50;83.70
20057;DHT22;10189;49.546;7.906;2023-04-07T08:54:14;9.10;85.90
20057;DHT22;10189;49.546;7.906;2023-04-07T08:56:44;9.00;88.40
20057;DHT22;10189;49.546;7.906;2023-04-07T08:59:12;8.60;91.00
20057;DHT22;10189;49.546;7.906;2023-04-07T09:01:39;8.40;92.30
20057;DHT22;10189;49.546;7.906;2023-04-07T09:04:07;8.30;93.50
20057;DHT22;10189;49.546;7.906;2023-04-07T09:06:34;8.00;95.60
20057;DHT22;10189;49.546;7.906;2023-04-07T09:09:01;7.90;97.80
20057;DHT22;10189;49.546;7.906;2023-04-07T09:11:28;7.80;98.50
20057;DHT22;10189;49.546;7.906;2023-04-07T09:13:55;7.70;99.90
20057;DHT22;10189;49.546;7.906;2023-04-07T09:16:24;7.40;99.90
20057;DHT22;10189;49.546;7.906;2023-04-07T09:18:52;7.30;99.90
20057;DHT22;10189;49.546;7.906;2023-04-07T09:21:18;7.20;99.90
20057;DHT22;10189;49.546;7.906;2023-04-07T09:23:44;7.10;99.90
20057;DHT22;10189;49.546;7.906;2023-04-07T09:28:52;7.30;99.90
20057;DHT22;10189;49.546;7.906;2023-04-07T09:31:21;7.40;99.90
20057;DHT22;10189;49.546;7.906;2023-04-07T09:33:50;7.50;99.90
20057;DHT22;10189;49.546;7.906;2023-04-07T09:36:17;7.60;99.90
20057;DHT22;10189;49.546;7.906;2023-04-07T09:38:44;7.70;99.90
20057;DHT22;10189;49.546;7.906;2023-04-07T09:41:14;7.70;99.90
20057;DHT22;10189;49.546;7.906;2023-04-07T09:43:45;7.80;99.90
20057;DHT22;10189;49.546;7.906;2023-04-07T09:46:15;7.90;99.90
20057;DHT22;10189;49.546;7.906;2023-04-07T09:48:43;8.00;99.90
20057;DHT22;10189;49.546;7.906;2023-04-07T09:51:15;8.10;99.90
20057;DHT22;10189;49.546;7.906;2023-04-07T09:56:09;8.30;97.70
20057;DHT22;10189;49.546;7.906;2023-04-07T09:58:39;8.50;97.00
20057;DHT22;10189;49.546;7.906;2023-04-07T10:01:09;8.60;96.30
20057;DHT22;10189;49.546;7.906;2023-04-07T10:03:36;8.60;93.90
20057;DHT22;10189;49.546;7.906;2023-04-07T10:06:03;8.70;95.00
20057;DHT22;10189;49.546;7.906;2023-04-07T10:08:34;8.70;92.20
20057;DHT22;10189;49.546;7.906;2023-04-07T10:11:02;8.60;92.90
20057;DHT22;10189;49.546;7.906;2023-04-07T10:13:36;8.60;93.10
20057;DHT22;10189;49.546;7.906;2023-04-07T10:16:06;8.40;92.00
20057;DHT22;10189;49.546;7.906;2023-04-07T10:18:34;8.30;94.00
20057;DHT22;10189;49.546;7.906;2023-04-07T10:21:03;8.40;93.50
20057;DHT22;10189;49.546;7.906;2023-04-07T10:26:50;8.30;93.30
20057;DHT22;10189;49.546;7.906;2023-04-07T10:29:23;8.30;92.30
20057;DHT22;10189;49.546;7.906;2023-04-07T10:31:51;8.30;92.00
20057;DHT22;10189;49.546;7.906;2023-04-07T10:37:13;8.40;92.10
20057;DHT22;10189;49.546;7.906;2023-04-07T10:39:42;8.50;91.70
20057;DHT22;10189;49.546;7.906;2023-04-07T10:45:06;8.60;92.50
20057;DHT22;10189;49.546;7.906;2023-04-07T10:47:34;8.70;90.50
20057;DHT22;10189;49.546;7.906;2023-04-07T10:50:21;8.80;90.10
20057;DHT22;10189;49.546;7.906;2023-04-07T10:53:09;8.80;91.70
20057;DHT22;10189;49.546;7.906;2023-04-07T10:55:41;8.80;91.60
20057;DHT22;10189;49.546;7.906;2023-04-07T10:58:18;8.80;92.30
20057;DHT22;10189;49.546;7.906;2023-04-07T11:03:27;8.70;92.90
20057;DHT22;10189;49.546;7.906;2023-04-07T11:06:05;8.70;92.50
20057;DHT22;10189;49.546;7.906;2023-04-07T11:08:38;8.70;93.20
20057;DHT22;10189;49.546;7.906;2023-04-07T11:11:09;8.80;93.80
20057;DHT22;10189;49.546;7.906;2023-04-07T11:13:46;8.80;92.70
20057;DHT22;10189;49.546;7.906;2023-04-07T11:16:15;8.80;93.20
20057;DHT22;10189;49.546;7.906;2023-04-07T11:18:43;8.60;92.00
20057;DHT22;10189;49.546;7.906;2023-04-07T11:21:10;8.60;93.40
20057;DHT22;10189;49.546;7.906;2023-04-07T11:23:41;8.60;94.30
20057;DHT22;10189;49.546;7.906;2023-04-07T11:26:10;8.50;94.10
20057;DHT22;10189;49.546;7.906;2023-04-07T11:28:49;8.60;94.10
20057;DHT22;10189;49.546;7.906;2023-04-07T11:31:27;8.50;93.90
20057;DHT22;10189;49.546;7.906;2023-04-07T11:34:00;8.50;94.10
20057;DHT22;10189;49.546;7.906;2023-04-07T11:36:38;8.60;94.40
20057;DHT22;10189;49.546;7.906;2023-04-07T11:39:05;8.60;93.80
20057;DHT22;10189;49.546;7.906;2023-04-07T11:41:48;8.50;94.20
20057;DHT22;10189;49.546;7.906;2023-04-07T11:44:15;8.60;95.50
20057;DHT22;10189;49.546;7.906;2023-04-07T11:46:58;8.60;93.60
20057;DHT22;10189;49.546;7.906;2023-04-07T11:49:26;8.50;93.20
20057;DHT22;10189;49.546;7.906;2023-04-07T11:52:04;8.50;94.60
20057;DHT22;10189;49.546;7.906;2023-04-07T11:54:41;8.60;94.70
20057;DHT22;10189;49.546;7.906;2023-04-07T11:57:08;8.70;93.10
20057;DHT22;10189;49.546;7.906;2023-04-07T11:59:37;8.60;92.70
20057;DHT22;10189;49.546;7.906;2023-04-07T12:02:04;8.50;93.30
20057;DHT22;10189;49.546;7.906;2023-04-07T12:04:31;8.70;93.10
20057;DHT22;10189;49.546;7.906;2023-04-07T12:07:09;8.70;92.50
20057;DHT22;10189;49.546;7.906;2023-04-07T12:09:36;9.00;92.80
20057;DHT22;10189;49.546;7.906;2023-04-07T12:12:04;9.20;91.50
20057;DHT22;10189;49.546;7.906;2023-04-07T12:14:32;9.20;92.30
20057;DHT22;10189;49.546;7.906;2023-04-07T12:16:58;9.00;93.40
20057;DHT22;10189;49.546;7.906;2023-04-07T12:19:28;9.10;94.00
20057;DHT22;10189;49.546;7.906;2023-04-07T12:21:57;9.20;94.30
20057;DHT22;10189;49.546;7.906;2023-04-07T12:24:23;9.30;93.90
20057;DHT22;10189;49.546;7.906;2023-04-07T12:26:49;9.60;94.20
20057;DHT22;10189;49.546;7.906;2023-04-07T12:29:17;9.80;92.50
20057;DHT22;10189;49.546;7.906;2023-04-07T12:31:44;10.20;91.40
20057;DHT22;10189;49.546;7.906;2023-04-07T12:34:14;10.30;90.20
20057;DHT22;10189;49.546;7.906;2023-04-07T12:36:40;10.30;90.20
20057;DHT22;10189;49.546;7.906;2023-04-07T12:39:06;10.10;89.60
20057;DHT22;10189;49.546;7.906;2023-04-07T12:41:32;10.10;89.70
20057;DHT22;10189;49.546;7.906;2023-04-07T12:43:58;9.90;89.50
20057;DHT22;10189;49.546;7.906;2023-04-07T12:46:24;9.80;91.20
20057;DHT22;10189;49.546;7.906;2023-04-07T12:48:50;10.00;89.90
20057;DHT22;10189;49.546;7.906;2023-04-07T12:51:16;10.20;89.80
20057;DHT22;10189;49.546;7.906;2023-04-07T12:53:42;10.50;91.30
20057;DHT22;10189;49.546;7.906;2023-04-07T12:56:08;10.30;85.10
20057;DHT22;10189;49.546;7.906;2023-04-07T12:58:34;10.30;86.70
20057;DHT22;10189;49.546;7.906;2023-04-07T13:01:01;10.30;86.80
20057;DHT22;10189;49.546;7.906;2023-04-07T13:03:27;10.40;86.20
20057;DHT22;10189;49.546;7.906;2023-04-07T13:05:52;10.20;83.00
20057;DHT22;10189;49.546;7.906;2023-04-07T13:08:20;9.90;85.90
20057;DHT22;10189;49.546;7.906;2023-04-07T13:10:46;9.80;87.00
20057;DHT22;10189;49.546;7.906;2023-04-07T13:13:12;9.60;86.30
20057;DHT22;10189;49.546;7.906;2023-04-07T13:15:38;9.50;89.50
20057;DHT22;10189;49.546;7.906;2023-04-07T13:18:04;9.60;90.60
20057;DHT22;10189;49.546;7.906;2023-04-07T13:20:29;9.80;87.90
20057;DHT22;10189;49.546;7.906;2023-04-07T13:22:55;9.80;87.80
20057;DHT22;10189;49.546;7.906;2023-04-07T13:25:21;9.80;88.10
20057;DHT22;10189;49.546;7.906;2023-04-07T13:27:47;9.80;89.90
20057;DHT22;10189;49.546;7.906;2023-04-07T13:30:13;9.80;90.50
20057;DHT22;10189;49.546;7.906;2023-04-07T13:32:39;9.70;89.70
20057;DHT22;10189;49.546;7.906;2023-04-07T13:35:06;9.50;89.70
20057;DHT22;10189;49.546;7.906;2023-04-07T13:37:32;9.60;89.80
20057;DHT22;10189;49.546;7.906;2023-04-07T13:39:58;9.50;88.60
20057;DHT22;10189;49.546;7.906;2023-04-07T13:42:24;9.70;89.80
20057;DHT22;10189;49.546;7.906;2023-04-07T13:44:50;10.10;87.50
20057;DHT22;10189;49.546;7.906;2023-04-07T13:47:19;10.20;85.30
20057;DHT22;10189;49.546;7.906;2023-04-07T13:49:48;10.00;84.50
20057;DHT22;10189;49.546;7.906;2023-04-07T13:52:14;9.90;88.30
20057;DHT22;10189;49.546;7.906;2023-04-07T13:54:41;10.20;87.40
20057;DHT22;10189;49.546;7.906;2023-04-07T13:57:07;10.30;87.60
20057;DHT22;10189;49.546;7.906;2023-04-07T13:59:33;10.00;85.60
20057;DHT22;10189;49.546;7.906;2023-04-07T14:01:59;10.20;85.70
20057;DHT22;10189;49.546;7.906;2023-04-07T14:04:25;10.10;87.00
20057;DHT22;10189;49.546;7.906;2023-04-07T14:06:52;10.30;84.10
20057;DHT22;10189;49.546;7.906;2023-04-07T14:09:18;10.40;85.10
20057;DHT22;10189;49.546;7.906;2023-04-07T14:11:44;10.30;85.30
20057;DHT22;10189;49.546;7.906;2023-04-07T14:14:10;10.30;84.10
20057;DHT22;10189;49.546;7.906;2023-04-07T14:16:36;10.40;84.90
20057;DHT22;10189;49.546;7.906;2023-04-07T14:19:02;10.40;84.80
20057;DHT22;10189;49.546;7.906;2023-04-07T14:21:29;10.50;82.20
20057;DHT22;10189;49.546;7.906;2023-04-07T14:23:56;10.50;84.00
20057;DHT22;10189;49.546;7.906;2023-04-07T14:26:21;10.30;83.80
20057;DHT22;10189;49.546;7.906;2023-04-07T14:28:47;10.10;84.90
20057;DHT22;10189;49.546;7.906;2023-04-07T14:31:14;9.90;86.40
20057;DHT22;10189;49.546;7.906;2023-04-07T14:33:42;10.00;84.00
20057;DHT22;10189;49.546;7.906;2023-04-07T14:36:08;10.00;84.00
20057;DHT22;10189;49.546;7.906;2023-04-07T14:38:34;10.00;84.40
20057;DHT22;10189;49.546;7.906;2023-04-07T14:41:01;10.10;82.30
20057;DHT22;10189;49.546;7.906;2023-04-07T14:43:28;10.10;84.70
20057;DHT22;10189;49.546;7.906;2023-04-07T14:45:55;10.20;83.40
20057;DHT22;10189;49.546;7.906;2023-04-07T14:48:22;10.30;83.50
20057;DHT22;10189;49.546;7.906;2023-04-07T14:50:48;10.50;82.50
20057;DHT22;10189;49.546;7.906;2023-04-07T14:53:13;10.60;82.80
20057;DHT22;10189;49.546;7.906;2023-04-07T14:55:41;10.30;83.30
20057;DHT22;10189;49.546;7.906;2023-04-07T14:58:07;10.10;85.70
20057;DHT22;10189;49.546;7.906;2023-04-07T15:00:33;9.80;85.90
20057;DHT22;10189;49.546;7.906;2023-04-07T15:02:59;9.90;86.20
20057;DHT22;10189;49.546;7.906;2023-04-07T15:05:25;9.90;83.70
20057;DHT22;10189;49.546;7.906;2023-04-07T15:07:53;9.90;83.00
20057;DHT22;10189;49.546;7.906;2023-04-07T15:10:19;9.90;81.90
20057;DHT22;10189;49.546;7.906;2023-04-07T15:12:46;10.00;83.80
20057;DHT22;10189;49.546;7.906;2023-04-07T15:15:13;10.00;82.50
20057;DHT22;10189;49.546;7.906;2023-04-07T15:17:40;10.00;84.10
20057;DHT22;10189;49.546;7.906;2023-04-07T15:20:06;10.00;80.60
20057;DHT22;10189;49.546;7.906;2023-04-07T15:22:33;10.00;82.00
20057;DHT22;10189;49.546;7.906;2023-04-07T15:24:59;10.00;81.20
20057;DHT22;10189;49.546;7.906;2023-04-07T15:27:25;10.10;81.90
20057;DHT22;10189;49.546;7.906;2023-04-07T15:29:51;10.10;82.60
20057;DHT22;10189;49.546;7.906;2023-04-07T15:32:17;10.10;82.40
20057;DHT22;10189;49.546;7.906;2023-04-07T15:34:43;10.10;82.90
20057;DHT22;10189;49.546;7.906;2023-04-07T15:37:09;9.90;83.40
20057;DHT22;10189;49.546;7.906;2023-04-07T15:39:34;9.80;84.60
20057;DHT22;10189;49.546;7.906;2023-04-07T15:42:00;9.80;84.90
20057;DHT22;10189;49.546;7.906;2023-04-07T15:44:26;9.90;86.70
20057;DHT22;10189;49.546;7.906;2023-04-07T15:46:52;10.20;86.00
20057;DHT22;10189;49.546;7.906;2023-04-07T15:49:18;10.40;86.20
20057;DHT22;10189;49.546;7.906;2023-04-07T15:51:47;10.50;84.10
20057;DHT22;10189;49.546;7.906;2023-04-07T15:54:13;10.50;85.10
20057;DHT22;10189;49.546;7.906;2023-04-07T15:56:39;10.40;82.90
20057;DHT22;10189;49.546;7.906;2023-04-07T15:59:05;10.30;84.40
20057;DHT22;10189;49.546;7.906;2023-04-07T16:01:30;10.20;85.30
20057;DHT22;10189;49.546;7.906;2023-04-07T16:03:57;10.10;85.80
20057;DHT22;10189;49.546;7.906;2023-04-07T16:06:22;10.10;84.40
20057;DHT22;10189;49.546;7.906;2023-04-07T16:08:49;10.00;84.60
20057;DHT22;10189;49.546;7.906;2023-04-07T16:11:14;9.90;85.00
20057;DHT22;10189;49.546;7.906;2023-04-07T16:13:40;9.90;86.10